Moonlight II — 9HFR8 — position and weather

sailwx.info

Track history (hours):
 
Tides and Currents Weather Stations Pressure Air Temp Water Temp Dewpoint Dewpoint Depression Visibility Wind Speed Wind Dir Waves Ship Positions

Moonlight II

Last reported at 2014-Sep-02 17:27 UTC. Time now 2014-Sep-03 07:29 UTC.
Position N 38°47' E 001°25'.

Length 82 m; draft 4.1 m.

Type: Ship. MMSI: 215934000.

Date/timePositionNaut miles runAvg speedWind from/ knotsBaromVisibWave heightAir tempDewpointWater temp
2014-Sep-02 17:27N 38°47' E 001°25'3 0.4
2014-Sep-02 09:32N 38°45' E 001°26'0 0.2
2014-Sep-02 08:32N 38°45' E 001°25'6 0.5
2014-Sep-01 18:25N 38°50' E 001°21'2 1.7
2014-Sep-01 17:22N 38°51' E 001°19'4 0.4
2014-Sep-01 07:28N 38°49' E 001°22'6 4.5
2014-Sep-01 06:04N 38°55' E 001°26'0 0.0
2014-Sep-01 05:27N 38°55' E 001°26'0 0.0
2014-Aug-31 21:32N 38°55' E 001°26'0 0.0
2014-Aug-31 20:05N 38°55' E 001°26'0 0.0
2014-Aug-31 19:28N 38°55' E 001°26'0 0.0
2014-Aug-31 18:10N 38°55' E 001°26'0 0.0
2014-Aug-31 17:24N 38°55' E 001°26'0 0.0
2014-Aug-31 16:29N 38°55' E 001°26'5 5.2
2014-Aug-31 15:33N 38°50' E 001°26'5 0.8
2014-Aug-31 09:32N 38°45' E 001°25'0 0.2
2014-Aug-31 08:32N 38°45' E 001°25'9 9.4
2014-Aug-31 07:33N 38°54' E 001°27'0 0.0
2014-Aug-29 23:20N 38°55' E 001°26'0 0.1
2014-Aug-29 19:05N 38°55' E 001°27'2 3.5
2014-Aug-29 18:33N 38°53' E 001°27'8 1.9
2014-Aug-29 14:32N 38°45' E 001°25'0 0.0
2014-Aug-29 13:32N 38°45' E 001°25'0 0.0
2014-Aug-29 12:20N 38°45' E 001°25'0 0.0
2014-Aug-29 11:26N 38°45' E 001°25'0 0.0
2014-Aug-29 10:32N 38°45' E 001°25'0 0.0
2014-Aug-29 09:20N 38°45' E 001°26'0 0.3
2014-Aug-29 08:33N 38°45' E 001°25'15 1.0
2014-Aug-28 17:17N 38°58' E 001°36'912.8
2014-Aug-28 16:33N 39°05' E 001°44'1312.6
2014-Aug-28 15:33N 39°15' E 001°54'1312.5
2014-Aug-28 14:33N 39°24' E 002°04'1312.7
2014-Aug-28 13:31N 39°34' E 002°15'1313.1
2014-Aug-28 12:32N 39°44' E 002°26'1313.4
2014-Aug-28 11:33N 39°54' E 002°38'1313.2
2014-Aug-28 10:33N 40°03' E 002°50'1313.2
2014-Aug-28 09:33N 40°13' E 003°01'1313.1
2014-Aug-28 08:32N 40°23' E 003°13'3313.4
2014-Aug-28 06:05N 40°47' E 003°43'1114.1
2014-Aug-28 05:20N 40°54' E 003°52'6112.8
2014-Aug-28 00:31N 41°39' E 004°48'1212.7
2014-Aug-27 23:33N 41°48' E 004°60'1413.4
2014-Aug-27 22:28N 41°59' E 005°13'1112.1
2014-Aug-27 21:33N 42°07' E 005°23'1312.6
2014-Aug-27 20:33N 42°16' E 005°35'1312.7
2014-Aug-27 19:33N 42°25' E 005°47'1313.0
2014-Aug-27 18:33N 42°35' E 005°58'1313.1
2014-Aug-27 17:33N 42°44' E 006°11'1312.8
2014-Aug-27 16:33N 42°53' E 006°23'1312.9
2014-Aug-27 15:32N 43°03' E 006°35'1212.6
2014-Aug-27 14:33N 43°12' E 006°46'1313.0
2014-Aug-27 13:33N 43°22' E 006°58'1312.8
2014-Aug-27 12:33N 43°31' E 007°10'1713.2
2014-Aug-27 11:16N 43°44' E 007°26'0 0.0
2014-Aug-26 15:14N 43°44' E 007°26'6 9.3
2014-Aug-26 14:33N 43°40' E 007°20'1211.9
2014-Aug-26 13:33N 43°32' E 007°07'3 2.4
2014-Aug-26 12:30N 43°33' E 007°05'0 0.0
2014-Aug-26 11:24N 43°33' E 007°05'0 0.0
2014-Aug-26 10:30N 43°33' E 007°05'0 0.0
2014-Aug-26 09:30N 43°33' E 007°05'0 0.0
2014-Aug-26 08:30N 43°33' E 007°05'0 0.0
2014-Aug-26 07:30N 43°33' E 007°05'3 2.8
2014-Aug-26 06:33N 43°31' E 007°05'1111.2
2014-Aug-26 05:34N 43°22' E 006°56'1211.7
2014-Aug-26 04:34N 43°12' E 006°47'1711.2
2014-Aug-26 03:03N 42°60' E 006°31'611.7
2014-Aug-26 02:33N 42°55' E 006°25'1212.0
2014-Aug-26 01:33N 42°46' E 006°15'1212.3
2014-Aug-26 00:33N 42°38' E 006°02'8613.2
2014-Aug-25 18:04N 41°36' E 004°43'7313.1
2014-Aug-25 12:29N 40°43' E 003°36'1112.0
2014-Aug-25 11:33N 40°35' E 003°26'1312.5
2014-Aug-25 10:33N 40°26' E 003°14'1312.6
2014-Aug-25 09:34N 40°17' E 003°03'1312.9
2014-Aug-25 08:33N 40°08' E 002°51'1313.1
2014-Aug-25 07:34N 39°58' E 002°40'1313.0
2014-Aug-25 06:33N 39°48' E 002°28'1312.9
2014-Aug-25 05:33N 39°38' E 002°18'1413.6
2014-Aug-25 04:33N 39°27' E 002°07'1313.4
2014-Aug-25 03:33N 39°17' E 001°57'1313.2
2014-Aug-25 02:33N 39°06' E 001°46'1312.9
2014-Aug-25 01:33N 38°57' E 001°35'7 2.2
2014-Aug-24 22:14N 38°55' E 001°26'0 0.0
2014-Aug-24 21:14N 38°55' E 001°26'0 0.0
2014-Aug-24 20:27N 38°55' E 001°26'0 0.0
2014-Aug-24 18:26N 38°55' E 001°26'0 0.0
2014-Aug-24 16:32N 38°55' E 001°26'0 0.0
2014-Aug-24 15:14N 38°55' E 001°26'0 0.0
2014-Aug-24 14:26N 38°55' E 001°26'0 0.0
2014-Aug-24 13:32N 38°55' E 001°26'0 0.0
2014-Aug-24 11:20N 38°55' E 001°26'0 0.0
2014-Aug-24 09:26N 38°55' E 001°26'0 0.0
2014-Aug-24 08:26N 38°55' E 001°26'0 0.0
2014-Aug-24 06:26N 38°55' E 001°26'0 0.0
2014-Aug-24 05:32N 38°55' E 001°26'0 0.0
2014-Aug-24 03:26N 38°55' E 001°26'0 0.0
2014-Aug-24 02:20N 38°55' E 001°26'0 0.0
2014-Aug-24 01:32N 38°55' E 001°26'0 0.0
2014-Aug-24 00:32N 38°55' E 001°26'0 0.0
2014-Aug-23 23:08N 38°55' E 001°26'0 0.0
2014-Aug-23 22:20N 38°55' E 001°26'0 0.0
2014-Aug-23 21:26N 38°55' E 001°26'0 0.0
2014-Aug-23 20:20N 38°55' E 001°26'  
Track history (hours):
 
Tides and Currents Weather Stations Pressure Air Temp Water Temp Dewpoint Dewpoint Depression Visibility Wind Speed Wind Dir Waves Ship Positions

Moonlight II

Last reported at 2014-Sep-02 17:27 UTC. Time now 2014-Sep-03 07:29 UTC.
Position N 38°47' E 001°25'.

Length 82 m; draft 4.1 m.

Type: Ship. MMSI: 215934000.

Date/timePositionNaut miles runAvg speedWind from/ knotsBaromVisibWave heightAir tempDewpointWater temp
2014-Sep-02 17:27N 38°47' E 001°25'3 0.4
2014-Sep-02 09:32N 38°45' E 001°26'0 0.2
2014-Sep-02 08:32N 38°45' E 001°25'6 0.5
2014-Sep-01 18:25N 38°50' E 001°21'2 1.7
2014-Sep-01 17:22N 38°51' E 001°19'4 0.4
2014-Sep-01 07:28N 38°49' E 001°22'6 4.5
2014-Sep-01 06:04N 38°55' E 001°26'0 0.0
2014-Sep-01 05:27N 38°55' E 001°26'0 0.0
2014-Aug-31 21:32N 38°55' E 001°26'0 0.0
2014-Aug-31 20:05N 38°55' E 001°26'0 0.0
2014-Aug-31 19:28N 38°55' E 001°26'0 0.0
2014-Aug-31 18:10N 38°55' E 001°26'0 0.0
2014-Aug-31 17:24N 38°55' E 001°26'0 0.0
2014-Aug-31 16:29N 38°55' E 001°26'5 5.2
2014-Aug-31 15:33N 38°50' E 001°26'5 0.8
2014-Aug-31 09:32N 38°45' E 001°25'0 0.2
2014-Aug-31 08:32N 38°45' E 001°25'9 9.4
2014-Aug-31 07:33N 38°54' E 001°27'0 0.0
2014-Aug-29 23:20N 38°55' E 001°26'0 0.1
2014-Aug-29 19:05N 38°55' E 001°27'2 3.5
2014-Aug-29 18:33N 38°53' E 001°27'8 1.9
2014-Aug-29 14:32N 38°45' E 001°25'0 0.0
2014-Aug-29 13:32N 38°45' E 001°25'0 0.0
2014-Aug-29 12:20N 38°45' E 001°25'0 0.0
2014-Aug-29 11:26N 38°45' E 001°25'0 0.0
2014-Aug-29 10:32N 38°45' E 001°25'0 0.0
2014-Aug-29 09:20N 38°45' E 001°26'0 0.3
2014-Aug-29 08:33N 38°45' E 001°25'15 1.0
2014-Aug-28 17:17N 38°58' E 001°36'912.8
2014-Aug-28 16:33N 39°05' E 001°44'1312.6
2014-Aug-28 15:33N 39°15' E 001°54'1312.5
2014-Aug-28 14:33N 39°24' E 002°04'1312.7
2014-Aug-28 13:31N 39°34' E 002°15'1313.1
2014-Aug-28 12:32N 39°44' E 002°26'1313.4
2014-Aug-28 11:33N 39°54' E 002°38'1313.2
2014-Aug-28 10:33N 40°03' E 002°50'1313.2
2014-Aug-28 09:33N 40°13' E 003°01'1313.1
2014-Aug-28 08:32N 40°23' E 003°13'3313.4
2014-Aug-28 06:05N 40°47' E 003°43'1114.1
2014-Aug-28 05:20N 40°54' E 003°52'6112.8
2014-Aug-28 00:31N 41°39' E 004°48'1212.7
2014-Aug-27 23:33N 41°48' E 004°60'1413.4
2014-Aug-27 22:28N 41°59' E 005°13'1112.1
2014-Aug-27 21:33N 42°07' E 005°23'1312.6
2014-Aug-27 20:33N 42°16' E 005°35'1312.7
2014-Aug-27 19:33N 42°25' E 005°47'1313.0
2014-Aug-27 18:33N 42°35' E 005°58'1313.1
2014-Aug-27 17:33N 42°44' E 006°11'1312.8
2014-Aug-27 16:33N 42°53' E 006°23'1312.9
2014-Aug-27 15:32N 43°03' E 006°35'1212.6
2014-Aug-27 14:33N 43°12' E 006°46'1313.0
2014-Aug-27 13:33N 43°22' E 006°58'1312.8
2014-Aug-27 12:33N 43°31' E 007°10'1713.2
2014-Aug-27 11:16N 43°44' E 007°26'0 0.0
2014-Aug-26 15:14N 43°44' E 007°26'6 9.3
2014-Aug-26 14:33N 43°40' E 007°20'1211.9
2014-Aug-26 13:33N 43°32' E 007°07'3 2.4
2014-Aug-26 12:30N 43°33' E 007°05'0 0.0
2014-Aug-26 11:24N 43°33' E 007°05'0 0.0
2014-Aug-26 10:30N 43°33' E 007°05'0 0.0
2014-Aug-26 09:30N 43°33' E 007°05'0 0.0
2014-Aug-26 08:30N 43°33' E 007°05'0 0.0
2014-Aug-26 07:30N 43°33' E 007°05'3 2.8
2014-Aug-26 06:33N 43°31' E 007°05'1111.2
2014-Aug-26 05:34N 43°22' E 006°56'1211.7
2014-Aug-26 04:34N 43°12' E 006°47'1711.2
2014-Aug-26 03:03N 42°60' E 006°31'611.7
2014-Aug-26 02:33N 42°55' E 006°25'1212.0
2014-Aug-26 01:33N 42°46' E 006°15'1212.3
2014-Aug-26 00:33N 42°38' E 006°02'8613.2
2014-Aug-25 18:04N 41°36' E 004°43'7313.1
2014-Aug-25 12:29N 40°43' E 003°36'1112.0
2014-Aug-25 11:33N 40°35' E 003°26'1312.5
2014-Aug-25 10:33N 40°26' E 003°14'1312.6
2014-Aug-25 09:34N 40°17' E 003°03'1312.9
2014-Aug-25 08:33N 40°08' E 002°51'1313.1
2014-Aug-25 07:34N 39°58' E 002°40'1313.0
2014-Aug-25 06:33N 39°48' E 002°28'1312.9
2014-Aug-25 05:33N 39°38' E 002°18'1413.6
2014-Aug-25 04:33N 39°27' E 002°07'1313.4
2014-Aug-25 03:33N 39°17' E 001°57'1313.2
2014-Aug-25 02:33N 39°06' E 001°46'1312.9
2014-Aug-25 01:33N 38°57' E 001°35'7 2.2
2014-Aug-24 22:14N 38°55' E 001°26'0 0.0
2014-Aug-24 21:14N 38°55' E 001°26'0 0.0
2014-Aug-24 20:27N 38°55' E 001°26'0 0.0
2014-Aug-24 18:26N 38°55' E 001°26'0 0.0
2014-Aug-24 16:32N 38°55' E 001°26'0 0.0
2014-Aug-24 15:14N 38°55' E 001°26'0 0.0
2014-Aug-24 14:26N 38°55' E 001°26'0 0.0
2014-Aug-24 13:32N 38°55' E 001°26'0 0.0
2014-Aug-24 11:20N 38°55' E 001°26'0 0.0
2014-Aug-24 09:26N 38°55' E 001°26'0 0.0
2014-Aug-24 08:26N 38°55' E 001°26'0 0.0
2014-Aug-24 06:26N 38°55' E 001°26'0 0.0
2014-Aug-24 05:32N 38°55' E 001°26'0 0.0
2014-Aug-24 03:26N 38°55' E 001°26'0 0.0
2014-Aug-24 02:20N 38°55' E 001°26'0 0.0
2014-Aug-24 01:32N 38°55' E 001°26'0 0.0
2014-Aug-24 00:32N 38°55' E 001°26'0 0.0
2014-Aug-23 23:08N 38°55' E 001°26'0 0.0
2014-Aug-23 22:20N 38°55' E 001°26'0 0.0
2014-Aug-23 21:26N 38°55' E 001°26'0 0.0
2014-Aug-23 20:20N 38°55' E 001°26'  

Dump ship's entire track history